createdAt,value
2023-03-23T15:58:45.272Z,97271.44
2023-03-23T16:01:13.875Z,97266.50
2023-03-23T16:04:10.422Z,97263.94
2023-03-23T16:06:36.970Z,97255.19
2023-03-23T16:09:04.216Z,97256.09
2023-03-23T16:11:31.881Z,97250.22
2023-03-23T16:13:58.611Z,97259.31
2023-03-23T16:16:37.088Z,97253.66
2023-03-23T16:19:03.830Z,97242.22
2023-03-23T16:21:30.536Z,97252.50
2023-03-23T16:23:57.113Z,97258.28
2023-03-23T16:26:23.745Z,97254.16
2023-03-23T16:28:50.626Z,97255.16
2023-03-23T16:31:18.347Z,97260.31
2023-03-23T16:33:44.903Z,97263.22
2023-03-23T16:36:14.404Z,97257.84
2023-03-23T16:38:50.136Z,97259.47
2023-03-23T16:41:17.611Z,97264.69
2023-03-23T16:43:44.335Z,97256.25
2023-03-23T16:46:11.223Z,97269.25
2023-03-23T16:48:38.038Z,97273.47
2023-03-23T16:51:04.715Z,97263.84
2023-03-23T16:53:32.508Z,97267.34
2023-03-23T16:55:58.983Z,97264.50
2023-03-23T16:58:25.573Z,97265.13
2023-03-23T17:00:52.241Z,97267.28
2023-03-23T17:03:19.323Z,97265.78
2023-03-23T17:05:47.340Z,97264.19
2023-03-23T17:08:13.860Z,97273.88
2023-03-23T17:10:40.729Z,97278.63
2023-03-23T17:13:07.625Z,97276.56
2023-03-23T17:15:36.625Z,97269.78
2023-03-23T17:18:03.290Z,97279.06
2023-03-23T17:20:30.118Z,97280.53
2023-03-23T17:22:56.683Z,97281.97
2023-03-23T17:25:23.210Z,97279.09
2023-03-23T17:27:49.770Z,97275.41
2023-03-23T17:30:16.268Z,97271.69
2023-03-23T17:32:42.774Z,97266.34
2023-03-23T17:35:09.419Z,97269.22
2023-03-23T17:37:37.679Z,97273.78
2023-03-23T17:40:04.806Z,97273.34
2023-03-23T17:42:31.325Z,97281.34
2023-03-23T17:44:57.813Z,97281.53
2023-03-23T17:47:24.310Z,97277.00
2023-03-23T17:49:51.337Z,97284.00
2023-03-23T17:52:17.815Z,97286.94
2023-03-23T17:54:44.402Z,97300.06
2023-03-23T17:57:10.971Z,97292.72
2023-03-23T17:59:37.676Z,97303.38
2023-03-23T18:02:04.214Z,97312.59
2023-03-23T18:04:30.765Z,97307.41
2023-03-23T18:06:57.602Z,97319.72
2023-03-23T18:09:24.450Z,97316.47
2023-03-23T18:11:51.117Z,97312.72
2023-03-23T18:14:17.686Z,97315.97
2023-03-23T18:16:44.281Z,97322.25
2023-03-23T18:19:10.910Z,97314.47
2023-03-23T18:21:37.412Z,97311.63
2023-03-23T18:24:03.900Z,97305.53
2023-03-23T18:26:30.911Z,97314.13
2023-03-23T18:28:57.436Z,97306.72
2023-03-23T18:31:24.019Z,97310.91
2023-03-23T18:33:51.058Z,97305.66
2023-03-23T18:36:19.371Z,97308.13
2023-03-23T18:38:46.299Z,97301.69
2023-03-23T18:41:13.288Z,97297.78
2023-03-23T18:43:39.791Z,97299.78
2023-03-23T18:46:06.702Z,97304.97
2023-03-23T18:48:33.352Z,97297.53
2023-03-23T18:51:00.348Z,97296.34
2023-03-23T18:53:27.160Z,97285.72
2023-03-23T18:55:53.993Z,97283.69
2023-03-23T18:58:20.643Z,97296.25
2023-03-23T19:00:47.266Z,97288.84
2023-03-23T19:03:14.887Z,97270.72
2023-03-23T19:05:42.155Z,97270.44
2023-03-23T19:08:09.108Z,97281.94
2023-03-23T19:10:40.373Z,97293.84
2023-03-23T19:13:07.481Z,97294.81
2023-03-23T19:15:34.009Z,97294.91
2023-03-23T19:18:00.778Z,97296.97
2023-03-23T19:20:57.323Z,97296.69
2023-03-23T19:23:14.022Z,97306.38
2023-03-23T19:25:40.896Z,97301.88
2023-03-23T19:30:37.107Z,97289.31
2023-03-23T19:33:03.632Z,97288.63
2023-03-23T19:35:31.211Z,97285.97
2023-03-23T19:37:57.827Z,97281.09
2023-03-23T19:40:39.086Z,97275.72
2023-03-23T19:43:08.448Z,97277.69
2023-03-23T19:45:34.994Z,97280.44
2023-03-23T19:48:01.545Z,97286.03
2023-03-23T19:50:28.316Z,97292.72
2023-03-23T19:52:54.836Z,97294.47
2023-03-23T19:55:21.373Z,97287.09
2023-03-23T19:57:50.570Z,97294.16
2023-03-23T20:00:17.183Z,97294.06
2023-03-23T20:02:43.925Z,97282.31
2023-03-23T20:05:11.064Z,97290.81
2023-03-23T20:07:40.805Z,97287.63
2023-03-23T20:10:08.444Z,97285.28
2023-03-23T20:12:35.575Z,97292.88
2023-03-23T20:15:02.503Z,97281.78
2023-03-23T20:17:29.130Z,97290.09
2023-03-23T20:19:56.725Z,97282.69
2023-03-23T20:22:23.191Z,97294.38
2023-03-23T20:24:49.723Z,97296.44
2023-03-23T20:27:16.665Z,97298.50
2023-03-23T20:29:43.173Z,97295.28
2023-03-23T20:32:09.900Z,97296.22
2023-03-23T20:34:36.822Z,97305.00
2023-03-23T20:37:03.382Z,97302.44
2023-03-23T20:39:30.960Z,97300.22
2023-03-23T20:41:59.284Z,97306.38
2023-03-23T20:44:27.624Z,97306.13
2023-03-23T20:46:54.165Z,97301.81
2023-03-23T20:49:20.909Z,97306.38
2023-03-23T20:51:47.586Z,97310.88
2023-03-23T20:54:15.625Z,97308.03
2023-03-23T20:56:45.978Z,97305.34
2023-03-23T20:59:12.974Z,97303.97
2023-03-23T21:01:39.930Z,97304.84
2023-03-23T21:04:08.299Z,97297.31
2023-03-23T21:06:36.400Z,97294.59
2023-03-23T21:09:03.514Z,97296.22
2023-03-23T21:11:30.308Z,97296.22
2023-03-23T21:13:56.807Z,97304.84
2023-03-23T21:16:24.262Z,97295.94
2023-03-23T21:18:51.031Z,97297.72
2023-03-23T21:21:18.390Z,97292.03
2023-03-23T21:23:52.595Z,97294.19
2023-03-23T21:26:21.499Z,97296.53
2023-03-23T21:28:50.476Z,97285.44
2023-03-23T21:31:17.276Z,97292.63
2023-03-23T21:33:44.132Z,97282.13
2023-03-23T21:36:10.753Z,97286.69
2023-03-23T21:38:38.592Z,97291.34
2023-03-23T21:41:09.663Z,97284.75
2023-03-23T21:43:36.177Z,97284.41
2023-03-23T21:46:04.797Z,97281.44
2023-03-23T21:48:32.837Z,97273.88
2023-03-23T21:51:07.911Z,97264.16
2023-03-23T21:53:36.736Z,97267.59
2023-03-23T21:56:04.769Z,97269.06
2023-03-23T21:58:31.606Z,97271.34
2023-03-23T22:01:01.107Z,97266.91
2023-03-23T22:03:32.052Z,97270.34
2023-03-23T22:05:59.734Z,97273.13
2023-03-23T22:08:27.754Z,97272.41
2023-03-23T22:11:02.057Z,97268.41
2023-03-23T22:13:32.324Z,97270.31
2023-03-23T22:15:59.218Z,97272.41
2023-03-23T22:18:26.033Z,97273.75
2023-03-23T22:20:52.744Z,97275.13
2023-03-23T22:23:19.260Z,97272.09
2023-03-23T22:25:46.128Z,97267.78
2023-03-23T22:28:12.656Z,97268.94
2023-03-23T22:30:39.213Z,97262.47
2023-03-23T22:33:06.241Z,97267.91
2023-03-23T22:35:33.768Z,97267.78
2023-03-23T22:38:03.003Z,97266.06
2023-03-23T22:40:32.946Z,97253.75
2023-03-23T22:43:00.049Z,97256.56
2023-03-23T22:45:27.763Z,97252.06
2023-03-23T22:47:54.436Z,97258.72
2023-03-23T22:50:23.981Z,97253.44
2023-03-23T22:52:50.809Z,97249.03
2023-03-23T22:55:17.526Z,97255.09
2023-03-23T22:57:44.065Z,97245.72
2023-03-23T23:00:14.727Z,97249.66
2023-03-23T23:02:44.378Z,97244.56
2023-03-23T23:05:11.804Z,97248.63
2023-03-23T23:07:38.471Z,97240.13
2023-03-23T23:10:05.675Z,97245.38
2023-03-23T23:12:34.922Z,97249.13
2023-03-23T23:15:02.841Z,97237.47
2023-03-23T23:17:31.755Z,97237.47
2023-03-23T23:19:59.504Z,97236.38
2023-03-23T23:22:26.481Z,97234.72
2023-03-23T23:24:53.064Z,97234.53
2023-03-23T23:27:19.572Z,97226.81
2023-03-23T23:29:46.126Z,97222.75
2023-03-23T23:32:13.098Z,97222.50
2023-03-23T23:34:39.623Z,97215.69
2023-03-23T23:37:06.986Z,97208.31
2023-03-23T23:39:38.161Z,97217.22
2023-03-23T23:42:05.488Z,97210.44
2023-03-23T23:44:32.020Z,97211.22
2023-03-23T23:46:58.598Z,97215.63
2023-03-23T23:49:27.593Z,97211.38
2023-03-23T23:51:54.649Z,97206.66
2023-03-23T23:54:23.023Z,97214.47
2023-03-23T23:56:50.817Z,97207.25
2023-03-23T23:59:17.487Z,97209.78
